Strona główna
METAR-TAF:

METAR-TAF

Lotnisko :

Port lotniczy Padang

Padang, Indonezja

Szerokość geograficzna: 00-47-12S, Długość geograficzna: 100-16-50E, wysokość: 5 m

METAR: brakujący

czas: 19:22 (12:22 UTC)

Prognoza

Raport powstał 1 godzina i 22 minut temu, godzina 11:00 UTC
Prognoza ważna od 24 godzina 12 UTC do 25 godzina 12 UTC
Wiatr 6 kt od południowo-południowy zachód
Widzialność: 7000 m
Przerywane chmury na wysokości 1800 ft
słaby deszcz
Przejściowo
od 24 godzina 12 UTC do 24 godzina 14 UTC
Wiatr 6 kt od północ
Widzialność: 3000 m
deszcz
Stopniowe zmiany
od 24 godzina 15 UTC do 24 godzina 17 UTC
Wiatr 3 kt od północno-północny wschód
Widzialność 10 km lub więcej
Rozproszone chmury na wysokości 2000 ft

TAF: WIEE 241100Z 2412/2512 20006KT 7000 -RA BKN018 TEMPO 2412/2414 35006KT 3000 RA BECMG 2415/2417 02003KT 9999 NSW SCT020

Obserwacja i prognoza pogody dla ponad 4000 lotnisk (raport METAR i TAF).

Dostępne stacje oznaczono żółtymi i czerwonymi punktami na mapie.

Najedź kursorem aby zobaczyć nazwę stacji.

Kliknij aby zobaczyć obserwacje i prognozy pogody.

Aby zmienić mapę: kliknij na zielony przycisk z czarnym krzyżykiem, aby powiększyć; na zielony przycisk z myślnikiem, aby pomniejszyć; na zielone strzałki, aby przejść do map sąsiednich.


METAR-TAF: